createdAt,value
2022-10-19T00:01:38.247Z,98259.22
2022-10-19T00:04:23.687Z,98263.09
2022-10-19T00:07:09.540Z,98263.09
2022-10-19T00:09:54.758Z,98261.47
2022-10-19T00:12:40.397Z,98260.63
2022-10-19T00:15:25.711Z,98272.91
2022-10-19T00:18:11.208Z,98263.09
2022-10-19T00:21:05.363Z,98265.53
2022-10-19T00:23:50.903Z,98263.66
2022-10-19T00:26:36.644Z,98262.63
2022-10-19T00:29:22.348Z,98262.63
2022-10-19T00:32:07.766Z,98266.94
2022-10-19T00:34:53.543Z,98268.97
2022-10-19T00:37:39.012Z,98267.34
2022-10-19T00:40:24.406Z,98263.09
2022-10-19T00:43:15.811Z,98272.69
2022-10-19T00:46:01.573Z,98269.22
2022-10-19T00:48:47.174Z,98267.16
2022-10-19T00:51:34.677Z,98266.13
2022-10-19T00:54:20.831Z,98265.06
2022-10-19T00:57:06.929Z,98267.53
2022-10-19T00:59:52.874Z,98263.00
2022-10-19T01:02:38.468Z,98260.09
2022-10-19T01:05:24.444Z,98254.78
2022-10-19T01:08:11.549Z,98253.16
2022-10-19T01:11:25.069Z,98251.75
2022-10-19T01:14:19.752Z,98248.28
2022-10-19T01:17:19.432Z,98245.84
2022-10-19T01:20:10.727Z,98248.53
2022-10-19T01:23:17.559Z,98243.41
2022-10-19T01:26:35.093Z,98234.84
2022-10-19T01:29:52.664Z,98234.00
2022-10-19T01:32:45.496Z,98233.44
2022-10-19T01:36:03.144Z,98231.56
2022-10-19T01:39:02.483Z,98228.91
2022-10-19T01:41:57.886Z,98226.25
2022-10-19T01:44:50.591Z,98226.25
2022-10-19T01:47:45.985Z,98232.38
2022-10-19T01:50:41.054Z,98228.69
2022-10-19T01:53:30.352Z,98233.22
2022-10-19T01:56:20.299Z,98224.19
2022-10-19T01:59:08.165Z,98231.16
2022-10-19T02:01:55.758Z,98232.38
2022-10-19T02:04:42.239Z,98235.28
2022-10-19T02:07:28.011Z,98235.28
2022-10-19T02:13:03.129Z,98232.84
2022-10-19T02:15:52.409Z,98227.50
2022-10-19T02:18:44.892Z,98219.28
2022-10-19T02:21:31.720Z,98218.94
2022-10-19T02:24:16.903Z,98210.75
2022-10-19T02:27:05.585Z,98214.34
2022-10-19T02:29:51.414Z,98209.63
2022-10-19T02:32:37.229Z,98212.06
2022-10-19T02:35:23.128Z,98202.25
2022-10-19T02:38:11.810Z,98199.56
2022-10-19T02:41:09.965Z,98198.16
2022-10-19T02:44:01.083Z,98199.19
2022-10-19T02:46:52.657Z,98188.56
2022-10-19T02:49:39.414Z,98189.59
2022-10-19T02:52:25.397Z,98189.59
2022-10-19T02:55:11.054Z,98195.13
2022-10-19T02:57:57.404Z,98185.28
2022-10-19T03:00:43.283Z,98187.97
2022-10-19T03:03:28.874Z,98186.94
2022-10-19T03:06:14.479Z,98175.69
2022-10-19T03:09:00.571Z,98179.38
2022-10-19T03:11:45.855Z,98185.72
2022-10-19T03:14:31.242Z,98177.97
2022-10-19T03:17:16.768Z,98176.34
2022-10-19T03:20:02.180Z,98173.31
2022-10-19T03:22:47.479Z,98176.28
2022-10-19T03:25:33.222Z,98178.78
2022-10-19T03:28:18.359Z,98172.91
2022-10-19T03:31:03.853Z,98179.47
2022-10-19T03:33:49.823Z,98173.41
2022-10-19T03:36:39.958Z,98169.78
2022-10-19T03:39:26.243Z,98168.19
2022-10-19T03:42:11.479Z,98185.22
2022-10-19T03:44:57.082Z,98183.69
2022-10-19T03:47:42.407Z,98186.41
2022-10-19T03:50:27.785Z,98194.19
2022-10-19T03:53:13.260Z,98191.38
2022-10-19T03:56:19.449Z,98194.69
2022-10-19T03:59:06.062Z,98197.81
2022-10-19T04:01:51.611Z,98201.72
2022-10-19T04:04:37.128Z,98188.47
2022-10-19T04:07:22.712Z,98204.84
2022-10-19T04:10:08.523Z,98186.47
2022-10-19T04:12:54.099Z,98189.56
2022-10-19T04:15:40.269Z,98190.00
2022-10-19T04:18:26.302Z,98192.47
2022-10-19T04:21:21.202Z,98187.22
2022-10-19T04:24:15.346Z,98185.41
2022-10-19T04:27:00.586Z,98181.16
2022-10-19T04:29:46.005Z,98186.13
2022-10-19T04:32:31.569Z,98193.94
2022-10-19T04:35:17.075Z,98200.69
2022-10-19T04:38:02.546Z,98192.16
2022-10-19T04:40:47.897Z,98191.19
2022-10-19T04:43:33.690Z,98185.88
2022-10-19T04:46:19.966Z,98182.44
2022-10-19T04:49:06.911Z,98176.19
2022-10-19T04:51:52.262Z,98172.94
2022-10-19T04:54:37.775Z,98181.50
2022-10-19T04:57:23.116Z,98177.88
2022-10-19T05:00:09.607Z,98182.97
2022-10-19T05:02:54.954Z,98188.91
2022-10-19T05:05:40.843Z,98184.44
2022-10-19T05:08:26.222Z,98197.50
2022-10-19T05:11:14.822Z,98199.19
2022-10-19T05:14:00.144Z,98203.66
2022-10-19T05:16:45.533Z,98193.69
2022-10-19T05:19:31.158Z,98188.59
2022-10-19T05:22:16.438Z,98190.03
2022-10-19T05:25:01.883Z,98183.28
2022-10-19T05:27:51.382Z,98187.34
2022-10-19T05:30:37.421Z,98187.16
2022-10-19T05:33:23.999Z,98191.41
2022-10-19T05:36:16.975Z,98187.75
2022-10-19T05:39:13.452Z,98184.88
2022-10-19T05:41:58.853Z,98186.28
2022-10-19T05:44:44.858Z,98184.44
2022-10-19T05:47:31.189Z,98189.94
2022-10-19T05:50:16.610Z,98188.50
2022-10-19T05:53:01.892Z,98197.88
2022-10-19T05:55:47.314Z,98193.63
2022-10-19T05:58:33.460Z,98199.50
2022-10-19T06:01:20.464Z,98196.44
2022-10-19T06:04:07.345Z,98199.28
2022-10-19T06:06:52.705Z,98201.94
2022-10-19T06:09:38.127Z,98202.94
2022-10-19T06:12:25.062Z,98212.91
2022-10-19T06:15:11.270Z,98208.63
2022-10-19T06:17:57.361Z,98211.25
2022-10-19T06:20:42.691Z,98213.91
2022-10-19T06:23:28.397Z,98218.81
2022-10-19T06:26:15.027Z,98220.25
2022-10-19T06:29:01.722Z,98221.47
2022-10-19T06:31:48.225Z,98216.59
2022-10-19T06:34:34.160Z,98224.16
2022-10-19T06:37:19.855Z,98226.19
2022-10-19T06:40:07.229Z,98237.00
2022-10-19T06:42:55.611Z,98235.81
2022-10-19T06:45:41.757Z,98243.94
2022-10-19T06:48:27.386Z,98245.16
2022-10-19T06:51:13.831Z,98257.81
2022-10-19T06:53:59.296Z,98258.88
2022-10-19T06:56:45.207Z,98260.09
2022-10-19T06:59:30.654Z,98258.88
2022-10-19T07:02:16.299Z,98267.63
2022-10-19T07:05:06.153Z,98270.28
2022-10-19T07:07:52.754Z,98272.31
2022-10-19T07:10:38.645Z,98271.31
2022-10-19T07:13:25.226Z,98270.47
2022-10-19T07:16:17.776Z,98270.28
2022-10-19T07:19:06.524Z,98282.53
2022-10-19T07:21:52.766Z,98283.56
2022-10-19T07:24:38.618Z,98290.09
2022-10-19T07:27:24.689Z,98294.19
2022-10-19T07:30:10.576Z,98287.88
2022-10-19T07:32:56.374Z,98298.47
2022-10-19T07:35:42.656Z,98289.69
2022-10-19T07:38:29.924Z,98292.56
2022-10-19T07:41:18.148Z,98293.78
2022-10-19T07:44:04.125Z,98292.16
2022-10-19T07:46:50.381Z,98296.25
2022-10-19T07:49:35.848Z,98301.13
2022-10-19T07:52:21.373Z,98301.31
2022-10-19T07:55:07.251Z,98308.28
2022-10-19T07:57:52.746Z,98309.09
2022-10-19T08:00:41.319Z,98301.13
2022-10-19T08:06:32.361Z,98303.56
2022-10-19T08:09:40.051Z,98306.59
2022-10-19T08:12:23.615Z,98290.25
2022-10-19T08:15:09.653Z,98290.25
2022-10-19T08:17:55.000Z,98292.25
2022-10-19T08:20:42.023Z,98303.06
2022-10-19T08:23:27.570Z,98305.50
2022-10-19T08:26:13.133Z,98301.41
2022-10-19T08:29:03.782Z,98297.50
2022-10-19T08:31:49.677Z,98303.81
2022-10-19T08:34:35.127Z,98303.63
2022-10-19T08:37:39.985Z,98307.91
2022-10-19T08:40:31.178Z,98299.94
2022-10-19T08:43:46.139Z,98301.78
2022-10-19T08:46:50.547Z,98293.59
2022-10-19T08:49:36.518Z,98302.56
2022-10-19T08:52:34.268Z,98307.03
2022-10-19T08:55:29.481Z,98296.59
2022-10-19T08:58:40.448Z,98310.06
2022-10-19T09:01:33.923Z,98313.91
2022-10-19T09:04:38.470Z,98316.38
2022-10-19T09:07:33.759Z,98314.28
2022-10-19T09:10:30.802Z,98316.53
2022-10-19T09:14:03.842Z,98325.69
2022-10-19T09:16:49.793Z,98317.91
2022-10-19T09:19:35.404Z,98322.59
2022-10-19T09:22:29.469Z,98316.63
2022-10-19T09:25:21.500Z,98327.44
2022-10-19T09:28:20.216Z,98321.72
2022-10-19T09:31:10.601Z,98325.16
2022-10-19T09:34:05.926Z,98322.03
2022-10-19T09:36:56.673Z,98316.88
2022-10-19T09:39:50.408Z,98320.53
2022-10-19T09:42:40.661Z,98323.34
2022-10-19T09:45:35.779Z,98329.28
2022-10-19T09:48:21.115Z,98319.66
2022-10-19T09:51:13.194Z,98327.81
2022-10-19T09:53:59.822Z,98318.00
2022-10-19T09:56:53.140Z,98322.50
2022-10-19T09:59:38.895Z,98331.31
2022-10-19T10:02:32.540Z,98323.91
2022-10-19T10:05:19.723Z,98329.03
2022-10-19T10:08:13.681Z,98332.28
2022-10-19T10:11:26.933Z,98326.34
2022-10-19T10:14:23.250Z,98324.88
2022-10-19T10:17:14.423Z,98318.91
2022-10-19T10:19:59.559Z,98326.84
2022-10-19T10:22:54.313Z,98316.56
2022-10-19T10:25:48.923Z,98322.03
2022-10-19T10:28:47.022Z,98311.78
2022-10-19T10:31:32.167Z,98316.22
2022-10-19T10:34:38.762Z,98313.06
2022-10-19T10:37:42.354Z,98311.91
2022-10-19T10:40:31.773Z,98314.84
2022-10-19T10:43:20.479Z,98307.97
2022-10-19T10:46:13.517Z,98311.59
2022-10-19T10:49:02.607Z,98301.09
2022-10-19T10:52:07.128Z,98303.53
2022-10-19T10:55:00.668Z,98303.53
2022-10-19T10:57:52.009Z,98306.19
2022-10-19T11:00:40.335Z,98307.00
2022-10-19T11:03:29.103Z,98296.56
2022-10-19T11:06:16.696Z,98293.34
2022-10-19T11:09:07.275Z,98294.56
2022-10-19T11:11:56.134Z,98290.06
2022-10-19T11:15:01.356Z,98283.34
2022-10-19T11:18:14.455Z,98277.00
2022-10-19T11:21:02.989Z,98278.16
2022-10-19T11:24:12.449Z,98270.91
2022-10-19T11:27:03.824Z,98279.16
2022-10-19T11:29:58.485Z,98265.53
2022-10-19T11:33:01.545Z,98254.56
2022-10-19T11:36:08.491Z,98258.50
2022-10-19T11:38:53.978Z,98257.41
2022-10-19T11:41:51.384Z,98243.63
2022-10-19T11:44:57.266Z,98251.53
2022-10-19T11:47:51.090Z,98231.97
2022-10-19T11:50:54.058Z,98235.09
2022-10-19T11:54:14.913Z,98236.84
2022-10-19T11:57:25.752Z,98229.31
2022-10-19T12:00:37.637Z,98225.50
2022-10-19T12:03:42.401Z,98221.78
2022-10-19T12:06:38.300Z,98213.06
2022-10-19T12:09:52.989Z,98212.38
2022-10-19T12:12:44.385Z,98205.84
2022-10-19T12:15:39.668Z,98198.44
2022-10-19T12:18:40.403Z,98198.09
2022-10-19T12:21:34.487Z,98196.03
2022-10-19T12:24:30.601Z,98191.03
2022-10-19T12:27:17.466Z,98191.94
2022-10-19T12:30:13.024Z,98182.91
2022-10-19T12:33:14.750Z,98187.44
2022-10-19T12:36:15.862Z,98182.56
2022-10-19T12:39:11.692Z,98179.09
2022-10-19T12:42:14.715Z,98168.78
2022-10-19T12:45:15.995Z,98162.97
2022-10-19T12:48:14.399Z,98164.94
2022-10-19T12:51:01.388Z,98160.09
2022-10-19T12:53:49.239Z,98155.91
2022-10-19T12:56:48.790Z,98166.34
2022-10-19T12:59:36.452Z,98162.16
2022-10-19T13:02:30.438Z,98162.72
2022-10-19T13:05:24.621Z,98163.06
2022-10-19T13:08:33.449Z,98161.34
2022-10-19T13:11:20.578Z,98161.44
2022-10-19T13:14:15.038Z,98151.72
2022-10-19T13:17:02.714Z,98147.84
2022-10-19T13:19:48.103Z,98140.78
2022-10-19T13:22:34.007Z,98146.56
2022-10-19T13:25:30.676Z,98144.22
2022-10-19T13:28:16.023Z,98154.66
2022-10-19T13:31:07.011Z,98158.97
2022-10-19T13:33:57.279Z,98157.44
2022-10-19T13:37:00.883Z,98157.91
2022-10-19T13:39:47.634Z,98167.06
2022-10-19T13:42:33.715Z,98163.34
2022-10-19T13:45:24.736Z,98162.88
2022-10-19T13:48:22.965Z,98156.84
2022-10-19T13:51:35.897Z,98151.41
2022-10-19T13:54:42.290Z,98158.97
2022-10-19T13:57:52.925Z,98150.47
2022-10-19T14:01:01.076Z,98156.84
2022-10-19T14:03:46.249Z,98158.06
2022-10-19T14:06:41.090Z,98165.69
2022-10-19T14:09:40.519Z,98158.00
2022-10-19T14:12:29.096Z,98151.91
2022-10-19T14:15:30.645Z,98139.56
2022-10-19T14:18:29.133Z,98140.28
2022-10-19T14:21:14.471Z,98132.31
2022-10-19T14:24:00.439Z,98133.16
2022-10-19T14:26:46.526Z,98134.00
2022-10-19T14:29:43.259Z,98135.09
2022-10-19T14:32:30.171Z,98135.69
2022-10-19T14:35:23.535Z,98138.72
2022-10-19T14:38:15.724Z,98144.16
2022-10-19T14:41:02.802Z,98150.66
2022-10-19T14:43:48.195Z,98138.28
2022-10-19T14:46:35.548Z,98132.25
2022-10-19T14:49:20.651Z,98131.78
2022-10-19T14:52:06.231Z,98132.13
2022-10-19T14:54:54.150Z,98128.53
2022-10-19T14:57:41.253Z,98125.38
2022-10-19T15:00:28.324Z,98128.38
2022-10-19T15:03:22.661Z,98128.72
2022-10-19T15:06:08.149Z,98122.91
2022-10-19T15:08:59.925Z,98115.22
2022-10-19T15:11:52.688Z,98127.03
2022-10-19T15:14:38.593Z,98113.00
2022-10-19T15:17:29.522Z,98118.66
2022-10-19T15:20:28.695Z,98103.22
2022-10-19T15:23:34.798Z,98107.47
2022-10-19T15:26:26.335Z,98113.69
2022-10-19T15:29:22.719Z,98116.69
2022-10-19T15:32:16.575Z,98107.38
2022-10-19T15:35:31.578Z,98110.81
2022-10-19T15:38:23.167Z,98118.66
2022-10-19T15:41:19.710Z,98113.63
2022-10-19T15:44:10.223Z,98118.22
2022-10-19T15:47:19.926Z,98116.25
2022-10-19T15:50:31.565Z,98115.16
2022-10-19T15:53:17.027Z,98121.56
2022-10-19T15:58:54.852Z,98108.09
2022-10-19T16:01:41.168Z,98113.91
2022-10-19T16:04:26.950Z,98125.88
2022-10-19T16:07:32.072Z,98124.41
2022-10-19T16:10:20.161Z,98121.25
2022-10-19T16:13:05.737Z,98123.78
2022-10-19T16:16:01.387Z,98123.44
2022-10-19T16:18:56.462Z,98123.50
2022-10-19T16:21:44.680Z,98121.75
2022-10-19T16:24:32.682Z,98127.47
2022-10-19T16:27:18.134Z,98135.91
2022-10-19T16:30:04.496Z,98129.63
2022-10-19T16:32:50.082Z,98133.94
2022-10-19T16:35:37.551Z,98131.09
2022-10-19T16:38:23.055Z,98132.75
2022-10-19T16:41:11.380Z,98145.00
2022-10-19T16:43:57.978Z,98142.53
2022-10-19T16:46:43.725Z,98139.69
2022-10-19T16:49:29.558Z,98150.69
2022-10-19T16:52:15.588Z,98152.84
2022-10-19T16:55:01.539Z,98149.06
2022-10-19T16:57:47.557Z,98147.59
2022-10-19T17:00:33.356Z,98147.16
2022-10-19T17:03:19.368Z,98152.00
2022-10-19T17:06:06.405Z,98156.22
2022-10-19T17:09:29.908Z,98156.00
2022-10-19T17:11:59.872Z,98161.25
2022-10-19T17:14:45.309Z,98154.63
2022-10-19T17:17:30.655Z,98163.47
2022-10-19T17:20:16.372Z,98161.81
2022-10-19T17:23:01.586Z,98163.72
2022-10-19T17:25:48.601Z,98174.59
2022-10-19T17:28:35.434Z,98170.72
2022-10-19T17:31:21.195Z,98171.06
2022-10-19T17:34:07.886Z,98175.09
2022-10-19T17:36:53.371Z,98178.44
2022-10-19T17:39:38.851Z,98178.28
2022-10-19T17:42:24.907Z,98179.88
2022-10-19T17:45:11.170Z,98171.31
2022-10-19T17:47:57.024Z,98175.97
2022-10-19T17:50:42.413Z,98178.97
2022-10-19T17:53:29.091Z,98180.97
2022-10-19T17:56:17.546Z,98189.91
2022-10-19T17:59:03.694Z,98187.56
2022-10-19T18:01:49.241Z,98186.50
2022-10-19T18:07:25.638Z,98200.06
2022-10-19T18:10:11.019Z,98191.44
2022-10-19T18:12:56.481Z,98197.06
2022-10-19T18:15:42.170Z,98197.25
2022-10-19T18:18:29.724Z,98200.28
2022-10-19T18:21:18.507Z,98198.25
2022-10-19T18:24:04.388Z,98201.72
2022-10-19T18:26:51.632Z,98199.69
2022-10-19T18:29:37.033Z,98200.28
2022-10-19T18:32:22.659Z,98194.09
2022-10-19T18:35:09.001Z,98188.38
2022-10-19T18:37:54.188Z,98182.25
2022-10-19T18:40:39.649Z,98190.56
2022-10-19T18:43:25.200Z,98187.47
2022-10-19T18:46:10.939Z,98188.78
2022-10-19T18:48:56.634Z,98183.88
2022-10-19T18:51:42.307Z,98184.41
2022-10-19T18:54:28.522Z,98192.06
2022-10-19T18:57:13.856Z,98184.69
2022-10-19T18:59:59.582Z,98189.31
2022-10-19T19:02:47.549Z,98193.97
2022-10-19T19:05:33.799Z,98190.69
2022-10-19T19:08:19.479Z,98182.97
2022-10-19T19:11:12.845Z,98184.84
2022-10-19T19:14:01.261Z,98191.56
2022-10-19T19:16:46.858Z,98198.53
2022-10-19T19:19:32.696Z,98196.63
2022-10-19T19:22:18.473Z,98189.72
2022-10-19T19:25:04.542Z,98191.69
2022-10-19T19:27:50.032Z,98200.22
2022-10-19T19:30:46.963Z,98198.78
2022-10-19T19:33:32.976Z,98197.31
2022-10-19T19:36:19.338Z,98197.84
2022-10-19T19:39:04.948Z,98194.94
2022-10-19T19:41:50.992Z,98189.00
2022-10-19T19:44:36.662Z,98191.09
2022-10-19T19:47:22.081Z,98187.16
2022-10-19T19:50:08.197Z,98192.41
2022-10-19T19:52:54.015Z,98191.13
2022-10-19T19:55:39.440Z,98197.25
2022-10-19T19:58:24.892Z,98192.53
2022-10-19T20:01:19.143Z,98194.31
2022-10-19T20:04:05.740Z,98203.19
2022-10-19T20:06:51.608Z,98202.22
2022-10-19T20:09:37.075Z,98196.97
2022-10-19T20:12:22.539Z,98210.09
2022-10-19T20:15:08.203Z,98205.84
2022-10-19T20:17:53.674Z,98209.47
2022-10-19T20:20:40.325Z,98211.47
2022-10-19T20:23:25.749Z,98214.41
2022-10-19T20:26:23.088Z,98213.78
2022-10-19T20:29:08.532Z,98214.00
2022-10-19T20:31:54.359Z,98209.94
2022-10-19T20:34:39.822Z,98220.28
2022-10-19T20:37:26.224Z,98214.22
2022-10-19T20:40:11.679Z,98217.00
2022-10-19T20:42:56.925Z,98221.63
2022-10-19T20:45:42.478Z,98217.38
2022-10-19T20:48:27.964Z,98219.00
2022-10-19T20:51:24.864Z,98216.53
2022-10-19T20:54:13.486Z,98215.91
2022-10-19T20:56:59.623Z,98204.72
2022-10-19T20:59:45.758Z,98211.81
2022-10-19T21:02:31.252Z,98205.25
2022-10-19T21:05:16.750Z,98206.41
2022-10-19T21:08:02.300Z,98207.75
2022-10-19T21:10:47.607Z,98204.13
2022-10-19T21:13:33.212Z,98204.47
2022-10-19T21:16:20.470Z,98203.47
2022-10-19T21:19:08.812Z,98195.41
2022-10-19T21:21:58.677Z,98198.19
2022-10-19T21:24:44.102Z,98201.13
2022-10-19T21:27:29.729Z,98188.75
2022-10-19T21:30:15.147Z,98191.81
2022-10-19T21:33:00.646Z,98190.75
2022-10-19T21:35:46.108Z,98182.00
2022-10-19T21:38:31.700Z,98180.13
2022-10-19T21:41:23.676Z,98178.25
2022-10-19T21:44:11.545Z,98180.00
2022-10-19T21:46:56.920Z,98175.88
2022-10-19T21:49:42.322Z,98174.50
2022-10-19T21:52:27.709Z,98178.25
2022-10-19T21:55:13.266Z,98175.09
2022-10-19T21:57:58.654Z,98168.28
2022-10-19T22:00:44.292Z,98174.00
2022-10-19T22:03:30.091Z,98170.19
2022-10-19T22:06:15.932Z,98173.28
2022-10-19T22:09:04.170Z,98166.03
2022-10-19T22:11:49.957Z,98164.69
2022-10-19T22:14:35.416Z,98159.88
2022-10-19T22:17:20.922Z,98160.50
2022-10-19T22:20:07.058Z,98165.44
2022-10-19T22:22:54.892Z,98159.16
2022-10-19T22:25:40.954Z,98161.63
2022-10-19T22:28:26.918Z,98165.72
2022-10-19T22:31:13.258Z,98162.25
2022-10-19T22:34:05.030Z,98160.59
2022-10-19T22:36:50.379Z,98159.78
2022-10-19T22:39:35.819Z,98154.34
2022-10-19T22:43:24.520Z,98153.72
2022-10-19T22:46:29.980Z,98149.44
2022-10-19T22:49:15.594Z,98136.63
2022-10-19T22:52:00.998Z,98135.19
2022-10-19T22:54:46.373Z,98137.16
2022-10-19T22:57:31.700Z,98134.09
2022-10-19T23:00:17.284Z,98129.97
2022-10-19T23:03:02.680Z,98123.91
2022-10-19T23:05:48.252Z,98126.75
2022-10-19T23:08:33.718Z,98121.47
2022-10-19T23:11:19.648Z,98121.47
2022-10-19T23:14:05.163Z,98122.09
2022-10-19T23:16:50.516Z,98119.47
2022-10-19T23:19:36.259Z,98119.47
2022-10-19T23:22:21.525Z,98117.19
2022-10-19T23:25:07.663Z,98112.13
2022-10-19T23:27:53.611Z,98106.41
2022-10-19T23:30:39.007Z,98102.13
2022-10-19T23:33:26.010Z,98103.13
2022-10-19T23:36:31.661Z,98102.84
2022-10-19T23:39:18.276Z,98105.81
2022-10-19T23:42:03.722Z,98104.19
2022-10-19T23:44:49.170Z,98099.94
2022-10-19T23:47:34.796Z,98099.75
2022-10-19T23:50:20.775Z,98101.41
2022-10-19T23:53:06.366Z,98104.03
2022-10-19T23:55:51.854Z,98110.47
2022-10-19T23:58:37.502Z,98105.28
